createdAt,value
2022-09-10T00:00:15.278Z,14.70
2022-09-10T00:01:19.397Z,14.70
2022-09-10T00:02:21.663Z,14.70
2022-09-10T00:03:24.288Z,14.71
2022-09-10T00:04:27.871Z,14.69
2022-09-10T00:05:30.091Z,14.84
2022-09-10T00:06:32.993Z,14.98
2022-09-10T00:07:35.336Z,15.00
2022-09-10T00:08:39.399Z,14.98
2022-09-10T00:09:41.748Z,15.04
2022-09-10T00:10:46.655Z,15.18
2022-09-10T00:11:49.167Z,15.10
2022-09-10T00:12:51.477Z,14.89
2022-09-10T00:13:53.756Z,14.78
2022-09-10T00:14:56.401Z,14.75
2022-09-10T00:16:02.653Z,14.79
2022-09-10T00:17:05.161Z,14.82
2022-09-10T00:18:09.502Z,14.74
2022-09-10T00:19:12.841Z,14.70
2022-09-10T00:20:15.159Z,14.58
2022-09-10T00:21:20.531Z,14.55
2022-09-10T00:22:22.723Z,14.57
2022-09-10T00:23:27.517Z,14.62
2022-09-10T00:24:29.828Z,14.61
2022-09-10T00:25:32.334Z,14.67
2022-09-10T00:26:39.344Z,14.76
2022-09-10T00:27:41.791Z,14.73
2022-09-10T00:28:44.406Z,14.66
2022-09-10T00:29:46.943Z,14.66
2022-09-10T00:30:51.325Z,14.59
2022-09-10T00:31:54.813Z,14.61
2022-09-10T00:32:57.599Z,14.59
2022-09-10T00:34:01.403Z,14.63
2022-09-10T00:35:04.334Z,14.57
2022-09-10T00:36:28.505Z,14.53
2022-09-10T00:37:30.882Z,14.49
2022-09-10T00:38:33.738Z,14.51
2022-09-10T00:39:36.112Z,14.61
2022-09-10T00:40:41.962Z,14.64
2022-09-10T00:41:46.203Z,14.62
2022-09-10T00:42:48.923Z,14.62
2022-09-10T00:43:57.192Z,14.56
2022-09-10T00:45:02.198Z,14.57
2022-09-10T00:46:05.108Z,14.69
2022-09-10T00:47:14.814Z,14.72
2022-09-10T00:48:22.173Z,14.65
2022-09-10T00:49:34.733Z,14.64
2022-09-10T00:50:41.847Z,14.71
2022-09-10T00:51:46.255Z,14.73
2022-09-10T00:52:51.189Z,14.79
2022-09-10T00:53:53.943Z,14.74
2022-09-10T00:54:57.237Z,14.65
2022-09-10T00:56:02.606Z,14.74
2022-09-10T00:57:11.426Z,14.75
2022-09-10T00:58:15.411Z,14.73
2022-09-10T00:59:21.967Z,14.72
2022-09-10T01:00:24.730Z,14.74
2022-09-10T01:01:27.262Z,14.73
2022-09-10T01:02:29.830Z,14.77
2022-09-10T01:03:32.482Z,14.72
2022-09-10T01:04:35.986Z,14.71
2022-09-10T01:05:42.410Z,14.67
2022-09-10T01:06:46.133Z,14.68
2022-09-10T01:07:48.855Z,14.77
2022-09-10T01:08:51.252Z,14.76
2022-09-10T01:09:53.507Z,14.82
2022-09-10T01:11:01.517Z,14.77
2022-09-10T01:12:07.999Z,14.82
2022-09-10T01:13:22.563Z,14.83
2022-09-10T01:14:53.046Z,14.70
2022-09-10T01:15:59.839Z,14.77
2022-09-10T01:17:37.374Z,14.80
2022-09-10T01:18:50.004Z,14.77
2022-09-10T01:22:36.489Z,14.70
2022-09-10T01:23:58.243Z,14.69
2022-09-10T01:25:22.909Z,14.67
2022-09-10T01:26:41.893Z,14.66
2022-09-10T01:27:47.588Z,14.74
2022-09-10T01:29:24.744Z,14.75
2022-09-10T01:30:37.995Z,14.72
2022-09-10T01:31:46.603Z,14.70
2022-09-10T01:33:16.774Z,14.72
2022-09-10T01:34:34.385Z,14.70
2022-09-10T01:35:40.240Z,14.66
2022-09-10T01:36:45.474Z,14.62
2022-09-10T01:37:54.167Z,14.60
2022-09-10T01:38:57.116Z,14.66
2022-09-10T01:40:03.414Z,14.61
2022-09-10T01:41:10.242Z,14.64
2022-09-10T01:42:16.300Z,14.64
2022-09-10T01:43:18.842Z,14.74
2022-09-10T01:44:47.568Z,14.64
2022-09-10T01:46:29.840Z,14.47
2022-09-10T01:47:45.313Z,14.32
2022-09-10T01:49:09.105Z,14.43
2022-09-10T01:50:42.152Z,14.49
2022-09-10T01:51:53.961Z,14.48
2022-09-10T01:53:14.225Z,14.51
2022-09-10T01:54:18.995Z,14.53
2022-09-10T01:55:31.450Z,14.60
2022-09-10T01:57:07.441Z,14.68
2022-09-10T01:58:26.384Z,14.67
2022-09-10T01:59:54.381Z,14.69
2022-09-10T02:01:08.908Z,14.57
2022-09-10T02:02:21.612Z,14.63
2022-09-10T02:03:26.937Z,14.66
2022-09-10T02:04:30.714Z,14.68
2022-09-10T02:05:36.801Z,14.62
2022-09-10T02:06:46.689Z,14.71
2022-09-10T02:07:55.866Z,14.71
2022-09-10T02:09:00.366Z,14.72
2022-09-10T02:10:08.822Z,14.68
2022-09-10T02:11:17.798Z,14.74
2022-09-10T02:12:24.563Z,14.73
2022-09-10T02:13:45.633Z,14.61
2022-09-10T02:14:59.169Z,14.62
2022-09-10T02:16:31.669Z,14.58
2022-09-10T02:17:38.340Z,14.76
2022-09-10T02:18:42.547Z,14.66
2022-09-10T02:19:47.548Z,14.62
2022-09-10T02:20:52.935Z,14.60
2022-09-10T02:21:58.379Z,14.55
2022-09-10T02:23:02.269Z,14.61
2022-09-10T02:24:07.275Z,14.59
2022-09-10T02:25:10.296Z,14.54
2022-09-10T02:26:15.500Z,14.60
2022-09-10T02:27:18.169Z,14.66
2022-09-10T02:28:20.520Z,14.59
2022-09-10T02:29:23.242Z,14.58
2022-09-10T02:30:25.707Z,14.62
2022-09-10T02:31:28.341Z,14.60
2022-09-10T02:32:30.792Z,14.58
2022-09-10T02:33:34.278Z,14.61
2022-09-10T02:34:38.457Z,14.60
2022-09-10T02:35:40.837Z,14.59
2022-09-10T02:36:44.062Z,14.44
2022-09-10T02:37:46.368Z,14.45
2022-09-10T02:38:48.629Z,14.58
2022-09-10T02:39:51.010Z,14.55
2022-09-10T02:40:55.633Z,14.57
2022-09-10T02:41:59.734Z,14.66
2022-09-10T02:43:04.732Z,14.59
2022-09-10T02:44:07.221Z,14.61
2022-09-10T02:45:09.765Z,14.67
2022-09-10T02:46:13.167Z,14.72
2022-09-10T02:47:15.514Z,14.73
2022-09-10T02:48:18.235Z,14.72
2022-09-10T02:49:21.058Z,14.71
2022-09-10T02:50:27.038Z,14.72
2022-09-10T02:51:29.382Z,14.76
2022-09-10T02:52:31.717Z,14.69
2022-09-10T02:53:35.780Z,14.57
2022-09-10T02:54:40.202Z,14.61
2022-09-10T02:55:46.146Z,14.66
2022-09-10T02:56:49.804Z,14.69
2022-09-10T02:57:52.556Z,14.69
2022-09-10T02:58:54.978Z,14.72
2022-09-10T02:59:59.906Z,14.61
2022-09-10T03:01:14.563Z,14.54
2022-09-10T03:02:17.925Z,14.58
2022-09-10T03:03:20.228Z,14.63
2022-09-10T03:04:22.508Z,14.66
2022-09-10T03:05:24.846Z,14.65
2022-09-10T03:06:27.617Z,14.54
2022-09-10T03:07:30.392Z,14.58
2022-09-10T03:08:33.587Z,14.56
2022-09-10T03:09:35.840Z,14.47
2022-09-10T03:10:38.422Z,14.50
2022-09-10T03:11:41.927Z,14.37
2022-09-10T03:12:45.514Z,14.40
2022-09-10T03:13:47.849Z,14.44
2022-09-10T03:14:50.257Z,14.55
2022-09-10T03:15:52.912Z,14.50
2022-09-10T03:16:56.342Z,14.52
2022-09-10T03:18:00.450Z,14.58
2022-09-10T03:19:03.106Z,14.57
2022-09-10T03:20:07.752Z,14.54
2022-09-10T03:21:20.165Z,14.55
2022-09-10T03:22:22.698Z,14.51
2022-09-10T03:23:24.939Z,14.57
2022-09-10T03:24:28.555Z,14.60
2022-09-10T03:25:30.816Z,14.66
2022-09-10T03:26:33.718Z,14.64
2022-09-10T03:27:36.502Z,14.55
2022-09-10T03:28:44.729Z,14.64
2022-09-10T03:29:49.000Z,14.71
2022-09-10T03:30:51.360Z,14.85
2022-09-10T03:31:54.835Z,14.88
2022-09-10T03:32:58.724Z,14.81
2022-09-10T03:34:01.353Z,14.66
2022-09-10T03:35:05.182Z,14.67
2022-09-10T03:36:13.426Z,14.59
2022-09-10T03:37:17.583Z,14.59
2022-09-10T03:38:20.628Z,14.51
2022-09-10T03:39:23.146Z,14.50
2022-09-10T03:40:29.545Z,14.50
2022-09-10T03:41:32.600Z,14.55
2022-09-10T03:42:36.099Z,14.68
2022-09-10T03:43:38.344Z,14.67
2022-09-10T03:44:44.557Z,14.77
2022-09-10T03:45:49.400Z,14.70
2022-09-10T03:46:52.567Z,14.70
2022-09-10T03:47:54.880Z,14.60
2022-09-10T03:48:57.259Z,14.58
2022-09-10T03:50:02.113Z,14.48
2022-09-10T03:51:04.867Z,14.59
2022-09-10T03:52:07.871Z,14.58
2022-09-10T03:53:16.665Z,14.56
2022-09-10T03:54:20.078Z,14.47
2022-09-10T03:55:23.536Z,14.50
2022-09-10T03:56:27.573Z,14.59
2022-09-10T03:57:30.231Z,14.66
2022-09-10T03:58:32.525Z,14.68
2022-09-10T03:59:35.608Z,14.74
2022-09-10T04:00:37.861Z,14.70
2022-09-10T04:01:41.650Z,14.79
2022-09-10T04:02:44.177Z,14.84
2022-09-10T04:03:48.378Z,14.92
2022-09-10T04:04:50.666Z,14.78
2022-09-10T04:05:52.965Z,14.58
2022-09-10T04:06:55.505Z,14.54
2022-09-10T04:07:58.744Z,14.58
2022-09-10T04:09:01.751Z,14.51
2022-09-10T04:10:04.904Z,14.48
2022-09-10T04:11:07.173Z,14.38
2022-09-10T04:12:09.755Z,14.41
2022-09-10T04:13:12.484Z,14.40
2022-09-10T04:14:15.675Z,14.43
2022-09-10T04:15:19.207Z,14.44
2022-09-10T04:16:23.484Z,14.47
2022-09-10T04:17:25.875Z,14.54
2022-09-10T04:18:28.919Z,14.56
2022-09-10T04:19:31.946Z,14.64
2022-09-10T04:20:34.800Z,14.49
2022-09-10T04:21:42.291Z,14.47
2022-09-10T04:22:44.543Z,14.45
2022-09-10T04:23:47.703Z,14.39
2022-09-10T04:24:50.094Z,14.45
2022-09-10T04:25:53.123Z,14.50
2022-09-10T04:26:55.963Z,14.48
2022-09-10T04:27:58.307Z,14.42
2022-09-10T04:29:00.609Z,14.38
2022-09-10T04:30:02.969Z,14.45
2022-09-10T04:31:05.498Z,14.50
2022-09-10T04:32:08.123Z,14.58
2022-09-10T04:33:11.608Z,14.75
2022-09-10T04:34:16.411Z,14.82
2022-09-10T04:35:20.275Z,14.74
2022-09-10T04:36:22.867Z,14.65
2022-09-10T04:37:25.463Z,14.63
2022-09-10T04:38:30.781Z,14.77
2022-09-10T04:39:33.366Z,14.66
2022-09-10T04:40:36.697Z,14.59
2022-09-10T04:41:39.837Z,14.63
2022-09-10T04:42:43.277Z,14.72
2022-09-10T04:43:46.084Z,14.71
2022-09-10T04:44:49.134Z,14.74
2022-09-10T04:45:52.651Z,14.63
2022-09-10T04:46:56.481Z,14.67
2022-09-10T04:48:01.639Z,14.77
2022-09-10T04:49:06.509Z,14.80
2022-09-10T04:50:09.307Z,14.75
2022-09-10T04:51:16.819Z,14.66
2022-09-10T04:52:22.874Z,14.68
2022-09-10T04:53:27.746Z,14.72
2022-09-10T04:54:33.563Z,14.76
2022-09-10T04:55:39.635Z,14.66
2022-09-10T04:56:43.513Z,14.65
2022-09-10T04:57:46.084Z,14.62
2022-09-10T04:58:48.584Z,14.76
2022-09-10T04:59:53.052Z,14.78
2022-09-10T05:00:57.629Z,14.72
2022-09-10T05:02:02.124Z,14.75
2022-09-10T05:03:05.945Z,14.68
2022-09-10T05:04:08.585Z,14.73
2022-09-10T05:05:13.855Z,14.66
2022-09-10T05:06:16.251Z,14.58
2022-09-10T05:07:21.394Z,14.59
2022-09-10T05:08:26.045Z,14.57
2022-09-10T05:09:33.521Z,14.76
2022-09-10T05:10:38.779Z,14.69
2022-09-10T05:11:43.412Z,14.50
2022-09-10T05:12:48.122Z,14.59
2022-09-10T05:13:50.574Z,14.60
2022-09-10T05:14:58.202Z,14.62
2022-09-10T05:16:01.559Z,14.58
2022-09-10T05:17:05.965Z,14.61
2022-09-10T05:18:09.745Z,14.75
2022-09-10T05:19:17.902Z,14.65
2022-09-10T05:20:27.598Z,14.60
2022-09-10T05:21:31.157Z,14.71
2022-09-10T05:22:40.298Z,14.66
2022-09-10T05:23:43.165Z,14.73
2022-09-10T05:24:46.055Z,14.71
2022-09-10T05:25:48.807Z,14.79
2022-09-10T05:26:51.632Z,14.82
2022-09-10T05:27:56.109Z,14.78
2022-09-10T05:29:00.152Z,14.72
2022-09-10T05:30:04.237Z,14.82
2022-09-10T05:31:09.671Z,14.90
2022-09-10T05:32:13.423Z,14.83
2022-09-10T05:33:16.213Z,14.91
2022-09-10T05:34:18.641Z,14.94
2022-09-10T05:35:21.048Z,14.93
2022-09-10T05:36:24.309Z,14.97
2022-09-10T05:37:26.938Z,15.06
2022-09-10T05:38:29.863Z,15.07
2022-09-10T05:39:32.318Z,15.10
2022-09-10T05:40:35.730Z,15.12
2022-09-10T05:41:38.420Z,15.15
2022-09-10T05:42:40.760Z,15.09
2022-09-10T05:43:43.108Z,15.09
2022-09-10T05:44:46.386Z,15.02
2022-09-10T05:45:48.700Z,15.02
2022-09-10T05:46:52.040Z,15.10
2022-09-10T05:47:54.391Z,15.15
2022-09-10T05:48:58.905Z,15.08
2022-09-10T05:50:02.263Z,15.11
2022-09-10T05:51:04.661Z,15.12
2022-09-10T05:52:08.530Z,15.05
2022-09-10T05:53:11.039Z,15.11
2022-09-10T05:54:13.433Z,15.10
2022-09-10T05:55:16.501Z,15.17
2022-09-10T05:56:20.565Z,15.21
2022-09-10T05:57:23.018Z,15.17
2022-09-10T05:58:27.678Z,15.29
2022-09-10T05:59:30.094Z,15.21
2022-09-10T06:00:36.436Z,15.15
2022-09-10T06:01:39.358Z,15.16
2022-09-10T06:02:42.565Z,15.21
2022-09-10T06:03:58.831Z,15.32
2022-09-10T06:05:01.138Z,15.14
2022-09-10T06:06:03.649Z,15.14
2022-09-10T06:07:09.871Z,15.10
2022-09-10T06:08:12.200Z,15.15
2022-09-10T06:09:19.334Z,15.29
2022-09-10T06:10:34.842Z,15.19
2022-09-10T06:11:37.273Z,15.16
2022-09-10T06:12:40.135Z,15.32
2022-09-10T06:13:42.727Z,15.57
2022-09-10T06:14:46.283Z,15.50
2022-09-10T06:15:48.812Z,15.70
2022-09-10T06:16:54.618Z,15.65
2022-09-10T06:17:58.086Z,15.67
2022-09-10T06:19:00.598Z,15.80
2022-09-10T06:20:04.183Z,15.82
2022-09-10T06:21:16.352Z,15.76
2022-09-10T06:22:20.910Z,15.87
2022-09-10T06:23:26.040Z,16.13
2022-09-10T06:24:28.374Z,15.99
2022-09-10T06:25:32.435Z,16.03
2022-09-10T06:26:36.586Z,16.09
2022-09-10T06:27:44.380Z,16.20
2022-09-10T06:28:47.485Z,16.20
2022-09-10T06:29:49.998Z,16.34
2022-09-10T06:30:52.334Z,16.64
2022-09-10T06:31:54.831Z,16.67
2022-09-10T06:32:59.618Z,16.59
2022-09-10T06:34:02.265Z,16.66
2022-09-10T06:35:06.461Z,16.72
2022-09-10T06:36:09.339Z,16.81
2022-09-10T06:37:11.787Z,16.73
2022-09-10T06:38:14.831Z,16.90
2022-09-10T06:39:17.324Z,16.74
2022-09-10T06:40:27.540Z,16.46
2022-09-10T06:43:19.247Z,16.54
2022-09-10T06:44:37.427Z,16.48
2022-09-10T06:45:57.689Z,16.39
2022-09-10T06:49:06.366Z,16.24
2022-09-10T06:50:17.470Z,16.12
2022-09-10T06:51:29.883Z,16.13
2022-09-10T06:52:39.915Z,16.24
2022-09-10T06:53:48.961Z,16.40
2022-09-10T06:54:57.369Z,16.16
2022-09-10T06:56:18.572Z,16.28
2022-09-10T06:57:26.857Z,16.23
2022-09-10T06:58:34.963Z,16.24
2022-09-10T06:59:37.511Z,16.48
2022-09-10T07:00:39.973Z,16.34
2022-09-10T07:01:42.790Z,16.23
2022-09-10T07:02:46.064Z,16.31
2022-09-10T07:03:53.581Z,16.27
2022-09-10T07:04:56.270Z,16.35
2022-09-10T07:06:03.342Z,16.33
2022-09-10T07:07:09.276Z,16.24
2022-09-10T07:08:17.607Z,16.15
2022-09-10T07:09:23.819Z,16.14
2022-09-10T07:10:37.389Z,16.28
2022-09-10T07:11:42.100Z,16.48
2022-09-10T07:12:47.581Z,16.27
2022-09-10T07:13:54.886Z,16.34
2022-09-10T07:15:02.544Z,16.36
2022-09-10T07:16:15.559Z,16.40
2022-09-10T07:17:21.098Z,16.48
2022-09-10T07:18:25.657Z,16.68
2022-09-10T07:19:29.722Z,16.47
2022-09-10T07:20:32.363Z,16.44
2022-09-10T07:21:37.753Z,16.55
2022-09-10T07:22:43.821Z,16.46
2022-09-10T07:23:55.239Z,16.52
2022-09-10T07:24:58.009Z,16.60
2022-09-10T07:26:08.242Z,16.57
2022-09-10T07:27:13.403Z,16.66
2022-09-10T07:28:18.708Z,16.68
2022-09-10T07:29:23.297Z,16.72
2022-09-10T07:30:29.570Z,16.88
2022-09-10T07:31:34.214Z,16.71
2022-09-10T07:32:43.310Z,16.83
2022-09-10T07:33:51.193Z,16.90
2022-09-10T07:34:55.882Z,17.05
2022-09-10T07:36:00.733Z,16.99
2022-09-10T07:37:06.019Z,17.06
2022-09-10T07:38:17.031Z,17.13
2022-09-10T07:39:25.681Z,17.27
2022-09-10T07:40:29.274Z,17.14
2022-09-10T07:41:36.191Z,17.08
2022-09-10T07:42:43.781Z,16.94
2022-09-10T07:43:46.871Z,17.08
2022-09-10T07:45:00.586Z,17.25
2022-09-10T07:46:12.096Z,17.34
2022-09-10T07:47:36.883Z,17.52
2022-09-10T07:49:00.124Z,17.37
2022-09-10T07:50:21.732Z,17.92
2022-09-10T07:51:30.849Z,18.22
2022-09-10T07:52:35.576Z,17.94
2022-09-10T07:53:42.163Z,18.18
2022-09-10T07:54:54.320Z,18.52
2022-09-10T07:56:15.533Z,18.75
2022-09-10T07:57:18.629Z,19.58
2022-09-10T07:58:21.180Z,19.38
2022-09-10T07:59:24.663Z,18.60
2022-09-10T08:00:33.081Z,18.55
2022-09-10T08:01:40.984Z,19.15
2022-09-10T08:02:44.891Z,18.91
2022-09-10T08:03:57.042Z,18.97
2022-09-10T08:04:59.707Z,19.40
2022-09-10T08:06:03.430Z,19.18
2022-09-10T08:07:06.056Z,18.86
2022-09-10T08:08:11.236Z,18.69
2022-09-10T08:09:14.925Z,19.10
2022-09-10T08:10:25.469Z,19.23
2022-09-10T08:11:28.464Z,19.12
2022-09-10T08:12:33.724Z,18.92
2022-09-10T08:13:37.540Z,18.92
2022-09-10T08:14:40.327Z,18.95
2022-09-10T08:15:44.674Z,18.95
2022-09-10T08:16:47.731Z,18.92
2022-09-10T08:17:55.982Z,18.40
2022-09-10T08:19:00.527Z,18.28
2022-09-10T08:20:08.241Z,17.89
2022-09-10T08:21:12.017Z,17.85
2022-09-10T08:23:16.441Z,18.06
2022-09-10T08:24:28.134Z,18.38
2022-09-10T08:25:30.964Z,18.30
2022-09-10T08:26:33.710Z,18.23
2022-09-10T08:27:37.448Z,18.25
2022-09-10T08:28:47.327Z,18.15
2022-09-10T08:29:51.185Z,18.28
2022-09-10T08:31:02.190Z,18.56
2022-09-10T08:32:08.343Z,18.38
2022-09-10T08:33:11.039Z,18.04
2022-09-10T08:34:14.986Z,18.03
2022-09-10T08:35:22.637Z,18.24
2022-09-10T08:36:29.739Z,18.28
2022-09-10T08:37:38.059Z,18.22
2022-09-10T08:38:46.657Z,18.34
2022-09-10T08:40:05.693Z,18.54
2022-09-10T08:41:10.909Z,18.35
2022-09-10T08:42:20.781Z,18.33
2022-09-10T08:43:35.234Z,18.71
2022-09-10T08:44:49.157Z,19.15
2022-09-10T08:45:55.848Z,19.21
2022-09-10T08:47:04.798Z,19.23
2022-09-10T08:48:19.359Z,18.95
2022-09-10T08:49:28.888Z,19.19
2022-09-10T08:50:48.655Z,19.65
2022-09-10T08:52:05.553Z,19.50
2022-09-10T08:53:25.869Z,19.44
2022-09-10T08:55:02.518Z,19.27
2022-09-10T08:56:14.023Z,19.51
2022-09-10T08:57:33.625Z,19.68
2022-09-10T08:58:59.393Z,19.40
2022-09-10T09:00:28.171Z,19.55
2022-09-10T09:01:46.240Z,19.85
2022-09-10T09:03:24.248Z,19.62
2022-09-10T09:04:45.793Z,19.30
2022-09-10T09:06:14.971Z,19.07
2022-09-10T09:07:40.368Z,19.23
2022-09-10T09:09:15.486Z,19.07
2022-09-10T09:10:28.209Z,18.92
2022-09-10T09:11:48.302Z,18.77
2022-09-10T09:13:29.742Z,18.90
2022-09-10T09:15:01.838Z,18.80
2022-09-10T09:16:32.929Z,18.69
2022-09-10T09:18:34.288Z,18.92
2022-09-10T09:19:54.800Z,18.97
2022-09-10T09:21:32.574Z,18.68
2022-09-10T09:22:53.277Z,18.37
2022-09-10T09:24:25.265Z,18.43
2022-09-10T09:25:38.332Z,18.23
2022-09-10T09:26:45.389Z,18.15
2022-09-10T09:27:50.849Z,18.40
2022-09-10T09:29:22.032Z,18.58
2022-09-10T09:30:34.177Z,18.51
2022-09-10T09:31:46.555Z,18.57
2022-09-10T09:32:50.182Z,19.53
2022-09-10T09:33:59.064Z,19.80
2022-09-10T09:35:07.223Z,19.97
2022-09-10T09:36:15.666Z,20.16
2022-09-10T09:37:25.748Z,20.13
2022-09-10T09:38:38.652Z,20.07
2022-09-10T09:39:52.909Z,19.89
2022-09-10T09:40:59.118Z,19.51
2022-09-10T09:42:26.226Z,19.54
2022-09-10T09:43:42.264Z,19.62
2022-09-10T09:45:06.859Z,19.25
2022-09-10T09:46:18.000Z,18.73
2022-09-10T09:47:23.601Z,18.92
2022-09-10T09:48:37.921Z,18.67
2022-09-10T09:49:40.757Z,18.60
2022-09-10T09:50:46.919Z,18.96
2022-09-10T09:51:51.717Z,19.04
2022-09-10T09:52:56.653Z,19.21
2022-09-10T09:54:39.457Z,20.27
2022-09-10T09:56:00.347Z,19.79
2022-09-10T09:57:02.913Z,20.09
2022-09-10T09:58:26.901Z,19.74
2022-09-10T09:59:34.925Z,19.46
2022-09-10T10:00:37.780Z,19.85
2022-09-10T10:01:42.905Z,19.93
2022-09-10T10:02:47.022Z,19.41
2022-09-10T10:04:04.096Z,19.17
2022-09-10T10:05:23.503Z,19.31
2022-09-10T10:06:28.474Z,19.24
2022-09-10T10:07:33.180Z,19.50
2022-09-10T10:08:52.221Z,19.37
2022-09-10T10:09:54.605Z,19.45
2022-09-10T10:10:57.763Z,19.57
2022-09-10T10:12:04.952Z,19.34
2022-09-10T10:13:21.188Z,19.65
2022-09-10T10:14:32.345Z,20.40
2022-09-10T10:15:41.927Z,20.81
2022-09-10T10:16:45.760Z,21.10
2022-09-10T10:17:48.912Z,21.41
2022-09-10T10:18:51.355Z,21.61
2022-09-10T10:20:07.248Z,21.44
2022-09-10T10:21:20.221Z,21.29
2022-09-10T10:22:26.321Z,21.24
2022-09-10T10:23:36.447Z,21.04
2022-09-10T10:24:38.851Z,21.22
2022-09-10T10:25:42.914Z,20.60
2022-09-10T10:26:48.611Z,20.36
2022-09-10T10:27:51.382Z,20.27
2022-09-10T10:29:00.669Z,19.97
2022-09-10T10:30:12.063Z,19.74
2022-09-10T10:31:15.892Z,19.74
2022-09-10T10:32:20.490Z,19.53
2022-09-10T10:33:28.658Z,19.53
2022-09-10T10:34:45.793Z,20.02
2022-09-10T10:36:18.379Z,19.45
2022-09-10T10:37:43.015Z,19.68
2022-09-10T10:38:56.082Z,19.91
2022-09-10T10:40:14.982Z,19.95
2022-09-10T10:41:55.778Z,19.98
2022-09-10T10:43:39.282Z,19.90
2022-09-10T10:45:08.229Z,19.88
2022-09-10T10:46:30.226Z,19.92
2022-09-10T10:48:03.176Z,19.91
2022-09-10T10:49:25.856Z,19.62
2022-09-10T10:50:42.957Z,19.62
2022-09-10T10:52:31.544Z,19.93
2022-09-10T10:53:43.617Z,20.07
2022-09-10T10:55:04.417Z,19.75
2022-09-10T10:56:17.237Z,19.96
2022-09-10T10:57:46.788Z,20.01
2022-09-10T10:58:59.489Z,19.77
2022-09-10T11:00:09.763Z,19.41
2022-09-10T11:01:22.131Z,19.31
2022-09-10T11:02:33.500Z,19.32
2022-09-10T11:03:46.293Z,19.33
2022-09-10T11:04:54.647Z,19.53
2022-09-10T11:06:16.724Z,19.16
2022-09-10T11:07:43.401Z,19.32
2022-09-10T11:09:02.597Z,19.26
2022-09-10T11:10:23.471Z,19.67
2022-09-10T11:12:01.716Z,19.35
2022-09-10T11:13:11.760Z,19.62
2022-09-10T11:14:42.069Z,20.03
2022-09-10T11:15:52.474Z,20.38
2022-09-10T11:17:25.243Z,20.50
2022-09-10T11:18:30.537Z,20.29
2022-09-10T11:20:11.201Z,19.73
2022-09-10T11:21:23.797Z,20.10
2022-09-10T11:22:45.338Z,19.58
2022-09-10T11:24:18.785Z,19.49
2022-09-10T11:25:32.356Z,19.34
2022-09-10T11:26:41.521Z,19.46
2022-09-10T11:27:49.500Z,19.36
2022-09-10T11:29:25.254Z,19.94
2022-09-10T11:30:28.003Z,19.94
2022-09-10T11:31:40.531Z,20.00
2022-09-10T11:33:04.872Z,19.88
2022-09-10T11:34:18.146Z,19.88
2022-09-10T11:35:29.147Z,20.26
2022-09-10T11:36:54.189Z,20.44
2022-09-10T11:38:23.261Z,20.08
2022-09-10T11:39:34.485Z,20.03
2022-09-10T11:40:52.341Z,20.21
2022-09-10T11:41:58.128Z,20.28
2022-09-10T11:45:05.932Z,20.06
2022-09-10T11:46:15.435Z,19.74
2022-09-10T11:47:18.031Z,20.11
2022-09-10T11:48:29.061Z,20.23
2022-09-10T11:50:00.765Z,20.93
2022-09-10T11:51:12.906Z,20.85
2022-09-10T11:52:17.575Z,20.86
2022-09-10T11:53:23.247Z,21.26
2022-09-10T11:54:29.333Z,21.67
2022-09-10T11:55:57.963Z,22.40
2022-09-10T11:57:16.179Z,21.41
2022-09-10T11:58:23.594Z,21.51
2022-09-10T11:59:35.360Z,21.17
2022-09-10T12:01:02.831Z,20.60
2022-09-10T12:02:20.987Z,20.54
2022-09-10T12:04:08.273Z,20.56
2022-09-10T12:05:28.661Z,20.71
2022-09-10T12:06:43.203Z,20.59
2022-09-10T12:07:58.880Z,20.88
2022-09-10T12:09:14.776Z,20.52
2022-09-10T12:10:43.456Z,20.64
2022-09-10T12:12:14.042Z,20.51
2022-09-10T12:13:16.880Z,20.33
2022-09-10T12:14:21.669Z,20.54
2022-09-10T12:15:27.574Z,20.83
2022-09-10T12:16:47.672Z,21.38
2022-09-10T12:18:14.203Z,21.46
2022-09-10T12:19:26.513Z,21.49
2022-09-10T12:20:32.278Z,21.51
2022-09-10T12:21:48.895Z,21.11
2022-09-10T12:22:55.148Z,21.15
2022-09-10T12:24:00.228Z,21.30
2022-09-10T12:25:07.146Z,21.35
2022-09-10T12:26:18.183Z,21.26
2022-09-10T12:27:31.445Z,21.47
2022-09-10T12:28:43.165Z,21.28
2022-09-10T12:29:49.604Z,21.23
2022-09-10T12:30:58.764Z,21.43
2022-09-10T12:32:19.509Z,21.26
2022-09-10T12:33:22.073Z,20.90
2022-09-10T12:34:24.413Z,21.11
2022-09-10T12:35:36.315Z,20.78
2022-09-10T12:36:58.978Z,20.68
2022-09-10T12:38:41.014Z,20.72
2022-09-10T12:39:44.676Z,20.65
2022-09-10T12:40:49.967Z,20.27
2022-09-10T12:41:53.437Z,20.25
2022-09-10T12:43:20.520Z,20.44
2022-09-10T12:44:35.116Z,20.52
2022-09-10T12:46:16.497Z,20.47
2022-09-10T12:47:42.133Z,20.71
2022-09-10T12:48:47.573Z,20.59
2022-09-10T12:49:57.949Z,20.39
2022-09-10T12:51:10.309Z,20.69
2022-09-10T12:52:17.190Z,20.67
2022-09-10T12:53:49.018Z,20.88
2022-09-10T12:55:28.998Z,20.96
2022-09-10T12:56:50.372Z,20.58
2022-09-10T12:58:07.318Z,20.56
2022-09-10T12:59:29.541Z,20.40
2022-09-10T13:01:12.575Z,20.31
2022-09-10T13:02:35.182Z,20.22
2022-09-10T13:03:54.930Z,20.05
2022-09-10T13:05:01.494Z,19.97
2022-09-10T13:06:07.557Z,19.91
2022-09-10T13:07:36.907Z,19.81
2022-09-10T13:08:45.474Z,19.80
2022-09-10T13:09:58.309Z,19.85
2022-09-10T13:11:01.543Z,19.76
2022-09-10T13:12:16.195Z,19.92
2022-09-10T13:13:50.823Z,19.93
2022-09-10T13:14:57.327Z,19.90
2022-09-10T13:16:00.655Z,19.56
2022-09-10T13:17:04.448Z,19.68
2022-09-10T13:18:22.888Z,19.65
2022-09-10T13:19:25.554Z,19.90
2022-09-10T13:20:48.282Z,19.86
2022-09-10T13:21:56.781Z,20.18
2022-09-10T13:23:05.980Z,20.51
2022-09-10T13:24:36.362Z,20.75
2022-09-10T13:25:42.953Z,20.92
2022-09-10T13:26:52.257Z,20.59
2022-09-10T13:27:54.617Z,20.97
2022-09-10T13:29:00.633Z,20.96
2022-09-10T13:30:20.435Z,20.72
2022-09-10T13:31:32.279Z,20.52
2022-09-10T13:32:43.410Z,20.87
2022-09-10T13:33:54.325Z,20.81
2022-09-10T13:35:11.138Z,21.16
2022-09-10T13:36:25.111Z,21.00
2022-09-10T13:38:08.162Z,21.15
2022-09-10T13:39:34.342Z,21.43
2022-09-10T13:40:39.278Z,21.60
2022-09-10T13:41:47.179Z,21.34
2022-09-10T13:43:05.333Z,21.14
2022-09-10T13:44:25.798Z,21.12
2022-09-10T13:45:37.484Z,21.10
2022-09-10T13:46:46.810Z,20.99
2022-09-10T13:48:40.528Z,20.39
2022-09-10T13:49:57.521Z,20.43
2022-09-10T13:51:09.087Z,20.03
2022-09-10T13:52:16.072Z,19.91
2022-09-10T13:53:19.943Z,19.83
2022-09-10T13:54:35.768Z,19.68
2022-09-10T13:55:41.058Z,19.50
2022-09-10T13:56:43.782Z,19.50
2022-09-10T13:57:49.792Z,19.48
2022-09-10T13:58:56.340Z,18.84
2022-09-10T14:00:11.420Z,18.75
2022-09-10T14:01:14.062Z,18.55
2022-09-10T14:02:19.515Z,18.40
2022-09-10T14:03:29.094Z,18.33
2022-09-10T14:04:44.241Z,18.30
2022-09-10T14:05:54.287Z,18.10
2022-09-10T14:07:04.463Z,17.97
2022-09-10T14:08:18.325Z,17.88
2022-09-10T14:09:20.742Z,18.19
2022-09-10T14:10:23.271Z,18.08
2022-09-10T14:11:31.386Z,18.11
2022-09-10T14:12:35.857Z,17.89
2022-09-10T14:13:56.019Z,18.03
2022-09-10T14:15:01.948Z,18.13
2022-09-10T14:16:08.526Z,18.01
2022-09-10T14:17:16.499Z,18.01
2022-09-10T14:18:20.305Z,17.86
2022-09-10T14:19:27.890Z,18.08
2022-09-10T14:20:33.333Z,18.33
2022-09-10T14:21:35.701Z,18.14
2022-09-10T14:22:38.253Z,18.07
2022-09-10T14:23:45.776Z,18.29
2022-09-10T14:25:02.629Z,18.14
2022-09-10T14:26:24.224Z,18.22
2022-09-10T14:27:27.629Z,18.60
2022-09-10T14:28:30.602Z,18.76
2022-09-10T14:29:32.979Z,18.80
2022-09-10T14:30:35.811Z,18.57
2022-09-10T14:31:38.367Z,18.71
2022-09-10T14:32:40.717Z,18.75
2022-09-10T14:33:43.014Z,18.62
2022-09-10T14:34:45.332Z,18.61
2022-09-10T14:35:52.687Z,18.80
2022-09-10T14:36:55.058Z,18.78
2022-09-10T14:37:57.283Z,18.81
2022-09-10T14:39:17.765Z,18.66
2022-09-10T14:40:21.612Z,18.89
2022-09-10T14:41:27.267Z,19.25
2022-09-10T14:42:35.376Z,19.59
2022-09-10T14:43:40.249Z,19.26
2022-09-10T14:44:42.768Z,18.87
2022-09-10T14:45:49.731Z,18.44
2022-09-10T14:47:08.335Z,18.54
2022-09-10T14:48:32.472Z,18.67
2022-09-10T14:49:41.360Z,18.49
2022-09-10T14:50:43.878Z,18.54
2022-09-10T14:51:47.249Z,18.60
2022-09-10T14:52:49.726Z,18.68
2022-09-10T14:53:54.660Z,18.22
2022-09-10T14:54:57.099Z,18.41
2022-09-10T14:56:00.401Z,18.62
2022-09-10T14:57:06.517Z,18.54
2022-09-10T14:58:11.557Z,18.46
2022-09-10T14:59:33.555Z,18.62
2022-09-10T15:00:35.821Z,18.41
2022-09-10T15:01:41.048Z,18.65